createdAt,value
2022-10-19T00:01:16.685Z,15.38
2022-10-19T00:03:45.329Z,15.07
2022-10-19T00:06:30.515Z,16.58
2022-10-19T00:09:02.304Z,18.80
2022-10-19T00:11:30.629Z,14.70
2022-10-19T00:13:58.678Z,15.63
2022-10-19T00:16:28.503Z,18.05
2022-10-19T00:19:02.868Z,18.40
2022-10-19T00:21:30.839Z,17.33
2022-10-19T00:23:59.880Z,15.07
2022-10-19T00:26:26.942Z,18.25
2022-10-19T00:28:55.559Z,16.20
2022-10-19T00:31:24.782Z,17.95
2022-10-19T00:33:52.713Z,17.17
2022-10-19T00:36:27.025Z,16.90
2022-10-19T00:38:55.781Z,16.55
2022-10-19T00:41:26.411Z,17.48
2022-10-19T00:43:59.353Z,16.70
2022-10-19T00:46:30.116Z,17.60
2022-10-19T00:49:07.105Z,18.73
2022-10-19T00:51:40.690Z,21.23
2022-10-19T00:54:09.098Z,17.45
2022-10-19T00:56:39.957Z,18.80
2022-10-19T00:59:09.163Z,22.52
2022-10-19T01:01:37.016Z,20.20
2022-10-19T01:04:05.005Z,22.77
2022-10-19T01:06:34.358Z,24.15
2022-10-19T01:09:03.454Z,19.92
2022-10-19T01:11:48.966Z,21.70
2022-10-19T01:14:21.894Z,21.10
2022-10-19T01:17:07.628Z,22.03
2022-10-19T01:20:12.011Z,22.83
2022-10-19T01:23:17.370Z,22.67
2022-10-19T01:26:12.847Z,24.92
2022-10-19T01:29:18.157Z,22.77
2022-10-19T01:31:54.668Z,22.38
2022-10-19T01:34:32.998Z,25.42
2022-10-19T01:37:23.752Z,25.00
2022-10-19T01:40:22.882Z,26.02
2022-10-19T01:43:00.358Z,23.95
2022-10-19T01:45:42.960Z,25.83
2022-10-19T01:48:19.450Z,26.33
2022-10-19T01:50:53.738Z,27.50
2022-10-19T01:53:23.493Z,25.63
2022-10-19T01:55:52.518Z,29.80
2022-10-19T01:58:26.950Z,27.65
2022-10-19T02:00:57.550Z,28.17
2022-10-19T02:03:26.195Z,29.98
2022-10-19T02:05:55.148Z,29.15
2022-10-19T02:08:31.686Z,29.58
2022-10-19T02:11:01.270Z,33.47
2022-10-19T02:13:30.963Z,31.17
2022-10-19T02:16:02.343Z,34.90
2022-10-19T02:18:36.723Z,30.38
2022-10-19T02:21:08.014Z,29.80
2022-10-19T02:23:36.125Z,29.27
2022-10-19T02:26:04.714Z,32.22
2022-10-19T02:28:33.315Z,27.60
2022-10-19T02:31:01.622Z,27.80
2022-10-19T02:33:30.009Z,30.70
2022-10-19T02:35:58.031Z,26.00
2022-10-19T02:38:26.587Z,31.25
2022-10-19T02:41:43.043Z,29.25
2022-10-19T02:44:48.237Z,27.23
2022-10-19T02:47:36.586Z,28.77
2022-10-19T02:50:11.062Z,28.75
2022-10-19T02:52:39.498Z,30.60
2022-10-19T02:55:08.095Z,28.95
2022-10-19T02:57:35.306Z,27.80
2022-10-19T03:00:04.170Z,30.55
2022-10-19T03:02:31.145Z,33.85
2022-10-19T03:04:58.150Z,36.05
2022-10-19T03:07:25.106Z,32.88
2022-10-19T03:09:52.199Z,34.33
2022-10-19T03:12:20.255Z,36.63
2022-10-19T03:14:48.356Z,40.38
2022-10-19T03:17:15.380Z,35.28
2022-10-19T03:19:42.397Z,39.15
2022-10-19T03:22:09.386Z,39.85
2022-10-19T03:24:36.332Z,39.75
2022-10-19T03:27:03.380Z,43.67
2022-10-19T03:29:30.341Z,36.35
2022-10-19T03:31:58.288Z,39.38
2022-10-19T03:34:25.310Z,40.28
2022-10-19T03:36:52.335Z,38.20
2022-10-19T03:39:20.272Z,44.65
2022-10-19T03:41:47.233Z,49.20
2022-10-19T03:44:14.202Z,39.17
2022-10-19T03:46:42.256Z,47.63
2022-10-19T03:49:12.298Z,42.80
2022-10-19T03:51:39.298Z,46.78
2022-10-19T03:54:08.464Z,47.17
2022-10-19T03:56:36.410Z,44.20
2022-10-19T03:59:05.503Z,47.53
2022-10-19T04:01:41.716Z,49.42
2022-10-19T04:04:12.764Z,49.35
2022-10-19T04:06:41.952Z,46.25
2022-10-19T04:09:13.503Z,53.13
2022-10-19T04:11:41.316Z,55.88
2022-10-19T04:14:18.966Z,52.65
2022-10-19T04:16:54.271Z,51.70
2022-10-19T04:19:22.796Z,51.33
2022-10-19T04:21:50.161Z,52.92
2022-10-19T04:24:19.075Z,50.33
2022-10-19T04:26:48.942Z,54.85
2022-10-19T04:29:17.660Z,53.13
2022-10-19T04:31:45.272Z,58.42
2022-10-19T04:34:12.628Z,50.75
2022-10-19T04:36:39.656Z,53.63
2022-10-19T04:39:08.265Z,55.35
2022-10-19T04:41:35.803Z,47.50
2022-10-19T04:44:06.772Z,51.38
2022-10-19T04:46:34.161Z,50.67
2022-10-19T04:49:01.300Z,46.17
2022-10-19T04:51:28.436Z,49.15
2022-10-19T04:53:59.666Z,41.83
2022-10-19T04:56:28.371Z,44.33
2022-10-19T04:58:59.479Z,44.13
2022-10-19T05:01:29.831Z,43.88
2022-10-19T05:04:00.686Z,44.33
2022-10-19T05:06:29.149Z,46.47
2022-10-19T05:08:56.873Z,43.65
2022-10-19T05:11:24.338Z,44.38
2022-10-19T05:13:52.209Z,48.10
2022-10-19T05:16:22.315Z,47.42
2022-10-19T05:18:59.101Z,49.97
2022-10-19T05:21:29.103Z,47.00
2022-10-19T05:23:57.329Z,51.45
2022-10-19T05:26:26.438Z,50.20
2022-10-19T05:28:57.094Z,48.85
2022-10-19T05:31:28.841Z,54.70
2022-10-19T05:33:56.572Z,49.28
2022-10-19T05:36:29.944Z,55.38
2022-10-19T05:38:57.918Z,52.53
2022-10-19T05:41:26.633Z,51.10
2022-10-19T05:44:01.714Z,54.63
2022-10-19T05:46:30.149Z,50.10
2022-10-19T05:48:58.635Z,51.50
2022-10-19T05:51:27.042Z,50.08
2022-10-19T05:53:55.428Z,53.72
2022-10-19T05:56:24.994Z,46.60
2022-10-19T05:58:52.971Z,47.72
2022-10-19T06:01:20.461Z,46.20
2022-10-19T06:03:51.210Z,44.17
2022-10-19T06:06:18.557Z,42.33
2022-10-19T06:08:45.623Z,41.50
2022-10-19T06:11:20.322Z,42.08
2022-10-19T06:13:49.757Z,40.92
2022-10-19T06:16:18.873Z,43.13
2022-10-19T06:18:46.159Z,37.25
2022-10-19T06:21:16.120Z,40.88
2022-10-19T06:26:15.195Z,38.35
2022-10-19T06:28:43.888Z,36.97
2022-10-19T06:31:11.440Z,37.75
2022-10-19T06:33:40.852Z,36.38
2022-10-19T06:36:14.036Z,32.83
2022-10-19T06:38:42.207Z,35.30
2022-10-19T06:41:10.093Z,37.15
2022-10-19T06:43:37.589Z,31.63
2022-10-19T06:46:07.151Z,29.35
2022-10-19T06:48:34.974Z,24.27
2022-10-19T06:51:06.320Z,23.98
2022-10-19T06:53:34.955Z,20.73
2022-10-19T06:56:04.388Z,18.27
2022-10-19T06:58:31.535Z,19.27
2022-10-19T07:01:00.213Z,19.63
2022-10-19T07:03:29.017Z,21.92
2022-10-19T07:05:57.897Z,21.95
2022-10-19T07:08:25.957Z,17.35
2022-10-19T07:10:55.219Z,19.38
2022-10-19T07:13:22.847Z,16.15
2022-10-19T07:15:50.254Z,15.05
2022-10-19T07:18:17.202Z,15.48
2022-10-19T07:20:53.552Z,15.60
2022-10-19T07:23:20.522Z,14.25
2022-10-19T07:25:47.444Z,12.48
2022-10-19T07:28:14.384Z,14.70
2022-10-19T07:30:41.369Z,16.67
2022-10-19T07:33:08.436Z,14.43
2022-10-19T07:35:37.188Z,11.18
2022-10-19T07:38:04.102Z,16.23
2022-10-19T07:40:30.989Z,10.52
2022-10-19T07:42:57.938Z,12.50
2022-10-19T07:45:24.975Z,12.55
2022-10-19T07:47:52.003Z,14.38
2022-10-19T07:50:19.157Z,11.07
2022-10-19T07:52:46.113Z,11.25
2022-10-19T07:55:13.016Z,15.10
2022-10-19T07:57:41.581Z,10.35
2022-10-19T08:00:11.637Z,11.73
2022-10-19T08:02:54.752Z,12.48
2022-10-19T08:05:25.610Z,8.00
2022-10-19T08:07:52.706Z,14.13
2022-10-19T08:10:19.717Z,13.60
2022-10-19T08:12:46.747Z,11.68
2022-10-19T08:15:13.753Z,14.70
2022-10-19T08:17:40.786Z,12.45
2022-10-19T08:20:08.369Z,11.95
2022-10-19T08:22:35.418Z,10.82
2022-10-19T08:25:03.991Z,10.07
2022-10-19T08:27:30.997Z,11.65
2022-10-19T08:29:58.009Z,9.18
2022-10-19T08:32:25.001Z,10.30
2022-10-19T08:34:51.907Z,10.45
2022-10-19T08:37:26.312Z,7.53
2022-10-19T08:39:59.910Z,10.75
2022-10-19T08:42:48.117Z,9.48
2022-10-19T08:45:31.895Z,7.90
2022-10-19T08:48:30.350Z,14.80
2022-10-19T08:50:59.473Z,8.82
2022-10-19T08:53:38.493Z,7.20
2022-10-19T08:56:45.658Z,9.52
2022-10-19T08:59:16.303Z,6.55
2022-10-19T09:02:14.386Z,9.02
2022-10-19T09:04:47.259Z,8.40
2022-10-19T09:07:31.353Z,9.50
2022-10-19T09:12:40.499Z,7.50
2022-10-19T09:15:18.191Z,9.23
2022-10-19T09:17:45.354Z,10.20
2022-10-19T09:20:23.049Z,7.40
2022-10-19T09:23:22.255Z,9.50
2022-10-19T09:25:51.777Z,7.05
2022-10-19T09:28:45.337Z,8.85
2022-10-19T09:31:44.821Z,10.43
2022-10-19T09:34:27.165Z,7.50
2022-10-19T09:36:57.638Z,6.63
2022-10-19T09:39:29.486Z,6.50
2022-10-19T09:42:01.246Z,11.60
2022-10-19T09:44:28.284Z,6.55
2022-10-19T09:47:19.979Z,7.50
2022-10-19T09:49:49.359Z,7.95
2022-10-19T09:52:37.247Z,12.45
2022-10-19T09:55:17.008Z,4.38
2022-10-19T09:57:45.674Z,6.75
2022-10-19T10:00:25.577Z,7.38
2022-10-19T10:02:54.675Z,3.70
2022-10-19T10:05:40.194Z,8.18
2022-10-19T10:08:17.135Z,7.00
2022-10-19T10:10:47.869Z,4.50
2022-10-19T10:13:21.263Z,7.57
2022-10-19T10:16:00.606Z,7.47
2022-10-19T10:18:30.025Z,7.18
2022-10-19T10:20:59.136Z,6.30
2022-10-19T10:23:31.297Z,4.10
2022-10-19T10:26:00.362Z,4.45
2022-10-19T10:28:29.924Z,5.57
2022-10-19T10:31:03.931Z,2.35
2022-10-19T10:36:28.078Z,2.10
2022-10-19T10:39:16.434Z,4.05
2022-10-19T10:41:46.549Z,6.63
2022-10-19T10:44:26.757Z,3.22
2022-10-19T10:47:01.504Z,4.47
2022-10-19T10:49:37.878Z,3.80
2022-10-19T10:52:12.316Z,3.45
2022-10-19T10:54:39.511Z,4.93
2022-10-19T10:57:10.212Z,2.85
2022-10-19T10:59:45.870Z,4.70
2022-10-19T11:02:34.294Z,3.33
2022-10-19T11:05:12.343Z,4.03
2022-10-19T11:07:45.182Z,3.28
2022-10-19T11:10:16.717Z,2.80
2022-10-19T11:12:58.037Z,3.72
2022-10-19T11:15:48.109Z,1.48
2022-10-19T11:18:25.458Z,4.10
2022-10-19T11:21:13.357Z,4.57
2022-10-19T11:24:02.855Z,5.97
2022-10-19T11:26:48.670Z,3.35
2022-10-19T11:29:46.432Z,2.75
2022-10-19T11:32:35.883Z,5.43
2022-10-19T11:35:28.824Z,2.90
2022-10-19T11:38:30.191Z,3.00
2022-10-19T11:41:22.212Z,3.95
2022-10-19T11:44:18.028Z,1.90
2022-10-19T11:46:57.681Z,7.28
2022-10-19T11:49:48.346Z,4.07
2022-10-19T11:52:46.796Z,4.05
2022-10-19T11:55:46.247Z,3.97
2022-10-19T11:58:42.726Z,1.77
2022-10-19T12:01:34.582Z,4.57
2022-10-19T12:04:04.690Z,2.03
2022-10-19T12:06:49.593Z,1.75
2022-10-19T12:09:57.904Z,2.65
2022-10-19T12:12:37.913Z,1.25
2022-10-19T12:15:23.938Z,4.80
2022-10-19T12:17:54.275Z,2.15
2022-10-19T12:20:42.317Z,3.28
2022-10-19T12:23:26.774Z,1.33
2022-10-19T12:25:56.579Z,1.80
2022-10-19T12:28:36.243Z,1.58
2022-10-19T12:31:06.369Z,1.80
2022-10-19T12:33:47.490Z,1.73
2022-10-19T12:36:14.557Z,3.97
2022-10-19T12:39:09.327Z,4.13
2022-10-19T12:41:55.087Z,1.60
2022-10-19T12:44:43.116Z,2.53
2022-10-19T12:47:19.681Z,1.77
2022-10-19T12:49:49.668Z,2.15
2022-10-19T12:52:41.753Z,1.77
2022-10-19T12:55:31.793Z,1.60
2022-10-19T12:58:21.189Z,1.65
2022-10-19T13:01:13.533Z,1.77
2022-10-19T13:03:44.717Z,1.70
2022-10-19T13:06:16.044Z,3.47
2022-10-19T13:08:48.924Z,3.00
2022-10-19T13:11:16.085Z,1.77
2022-10-19T13:14:20.259Z,2.17
2022-10-19T13:17:01.498Z,3.75
2022-10-19T13:19:28.850Z,3.53
2022-10-19T13:22:01.897Z,1.55
2022-10-19T13:24:33.411Z,2.90
2022-10-19T13:27:03.261Z,1.92
2022-10-19T13:29:39.725Z,3.00
2022-10-19T13:32:45.050Z,2.58
2022-10-19T13:35:33.670Z,2.38
2022-10-19T13:38:09.765Z,1.27
2022-10-19T13:40:39.128Z,0.98
2022-10-19T13:43:06.099Z,2.58
2022-10-19T13:45:33.117Z,1.80
2022-10-19T13:48:15.737Z,3.63
2022-10-19T13:51:15.400Z,2.40
2022-10-19T13:54:03.434Z,3.30
2022-10-19T13:57:15.246Z,2.03
2022-10-19T14:00:10.394Z,11.27
2022-10-19T14:02:55.675Z,26.90
2022-10-19T14:05:40.938Z,2.78
2022-10-19T14:08:30.246Z,10.70
2022-10-19T14:11:04.473Z,4.63
2022-10-19T14:13:31.750Z,3.90
2022-10-19T14:16:01.759Z,2.75
2022-10-19T14:18:33.089Z,4.90
2022-10-19T14:21:09.402Z,4.05
2022-10-19T14:23:40.634Z,3.25
2022-10-19T14:26:15.085Z,4.93
2022-10-19T14:28:43.332Z,2.85
2022-10-19T14:31:18.524Z,2.45
2022-10-19T14:33:53.747Z,3.10
2022-10-19T14:36:24.026Z,3.67
2022-10-19T14:38:55.424Z,5.20
2022-10-19T14:44:03.067Z,6.95
2022-10-19T14:46:32.545Z,5.53
2022-10-19T14:49:02.522Z,5.05
2022-10-19T14:51:49.523Z,3.72
2022-10-19T14:54:23.969Z,4.32
2022-10-19T14:56:57.923Z,6.45
2022-10-19T14:59:32.516Z,3.72
2022-10-19T15:02:02.547Z,3.22
2022-10-19T15:04:33.989Z,3.40
2022-10-19T15:07:05.019Z,30.40
2022-10-19T15:09:47.784Z,5.85
2022-10-19T15:12:19.395Z,11.60
2022-10-19T15:14:48.181Z,6.07
2022-10-19T15:17:26.479Z,6.32
2022-10-19T15:19:55.912Z,5.60
2022-10-19T15:22:38.396Z,5.93
2022-10-19T15:25:08.508Z,4.72
2022-10-19T15:27:38.125Z,7.10
2022-10-19T15:30:28.664Z,3.97
2022-10-19T15:33:13.517Z,12.50
2022-10-19T15:35:44.329Z,11.88
2022-10-19T15:38:14.986Z,13.15
2022-10-19T15:40:45.847Z,12.80
2022-10-19T15:43:31.333Z,11.95
2022-10-19T15:46:01.374Z,10.40
2022-10-19T15:48:45.057Z,10.02
2022-10-19T15:51:27.214Z,12.32
2022-10-19T15:54:04.541Z,6.65
2022-10-19T15:56:34.914Z,7.32
2022-10-19T15:59:05.945Z,5.93
2022-10-19T16:01:34.138Z,15.93
2022-10-19T16:04:02.513Z,44.00
2022-10-19T16:06:33.303Z,16.42
2022-10-19T16:09:01.188Z,13.68
2022-10-19T16:11:30.544Z,16.10
2022-10-19T16:13:58.926Z,15.35
2022-10-19T16:16:30.264Z,16.98
2022-10-19T16:18:59.062Z,18.52
2022-10-19T16:21:32.540Z,18.05
2022-10-19T16:24:00.806Z,13.25
2022-10-19T16:26:29.140Z,17.77
2022-10-19T16:28:56.705Z,18.33
2022-10-19T16:31:25.257Z,11.02
2022-10-19T16:33:52.444Z,16.92
2022-10-19T16:36:20.842Z,21.75
2022-10-19T16:38:49.227Z,27.90
2022-10-19T16:41:17.382Z,12.18
2022-10-19T16:43:44.546Z,15.80
2022-10-19T16:46:11.852Z,13.60
2022-10-19T16:48:39.829Z,12.88
2022-10-19T16:51:13.089Z,9.43
2022-10-19T16:53:40.476Z,5.55
2022-10-19T16:56:11.767Z,8.82
2022-10-19T16:58:41.735Z,6.63
2022-10-19T17:01:16.097Z,10.02
2022-10-19T17:03:46.289Z,7.43
2022-10-19T17:06:14.348Z,8.73
2022-10-19T17:11:33.739Z,9.35
2022-10-19T17:14:04.051Z,5.65
2022-10-19T17:16:36.308Z,8.68
2022-10-19T17:19:07.303Z,7.75
2022-10-19T17:21:39.330Z,8.35
2022-10-19T17:24:08.669Z,8.80
2022-10-19T17:26:43.513Z,7.43
2022-10-19T17:29:11.154Z,7.47
2022-10-19T17:31:40.543Z,10.35
2022-10-19T17:34:09.481Z,10.95
2022-10-19T17:39:18.587Z,21.70
2022-10-19T17:41:48.174Z,21.20
2022-10-19T17:44:18.818Z,17.05
2022-10-19T17:46:48.674Z,18.75
2022-10-19T17:49:17.105Z,15.52
2022-10-19T17:51:44.491Z,17.45
2022-10-19T17:54:17.049Z,17.10
2022-10-19T17:56:47.247Z,13.98
2022-10-19T17:59:14.776Z,12.55
2022-10-19T18:01:42.466Z,11.98
2022-10-19T18:04:10.114Z,9.80
2022-10-19T18:06:39.109Z,10.25
2022-10-19T18:09:09.682Z,10.85
2022-10-19T18:11:45.913Z,16.92
2022-10-19T18:14:14.293Z,15.23
2022-10-19T18:16:47.413Z,23.25
2022-10-19T18:19:17.529Z,19.05
2022-10-19T18:21:47.550Z,20.45
2022-10-19T18:24:20.034Z,11.27
2022-10-19T18:26:50.145Z,12.48
2022-10-19T18:29:22.405Z,13.65
2022-10-19T18:31:53.221Z,16.90
2022-10-19T18:34:26.692Z,18.52
2022-10-19T18:36:55.222Z,13.45
2022-10-19T18:39:24.638Z,9.48
2022-10-19T18:41:55.202Z,9.48
2022-10-19T18:44:27.255Z,13.45
2022-10-19T18:46:59.849Z,10.85
2022-10-19T18:49:28.084Z,8.65
2022-10-19T18:52:00.159Z,12.13
2022-10-19T18:54:28.645Z,10.23
2022-10-19T18:56:58.476Z,10.20
2022-10-19T19:01:56.189Z,9.40
2022-10-19T19:04:23.429Z,9.98
2022-10-19T19:06:53.407Z,14.55
2022-10-19T19:09:21.928Z,12.38
2022-10-19T19:11:49.400Z,19.30
2022-10-19T19:14:21.764Z,36.88
2022-10-19T19:16:50.933Z,45.97
2022-10-19T19:19:20.786Z,41.15
2022-10-19T19:21:50.576Z,38.58
2022-10-19T19:24:20.343Z,42.03
2022-10-19T19:26:52.202Z,46.70
2022-10-19T19:29:21.129Z,38.80
2022-10-19T19:31:49.861Z,24.73
2022-10-19T19:34:24.733Z,23.33
2022-10-19T19:36:52.235Z,29.80
2022-10-19T19:39:22.801Z,45.33
2022-10-19T19:41:51.321Z,28.38
2022-10-19T19:44:19.829Z,29.65
2022-10-19T19:46:48.363Z,31.23
2022-10-19T19:49:21.463Z,56.35
2022-10-19T19:51:49.992Z,58.25
2022-10-19T19:54:17.835Z,28.98
2022-10-19T19:56:45.947Z,27.10
2022-10-19T19:59:14.454Z,17.92
2022-10-19T20:01:44.199Z,13.93
2022-10-19T20:04:12.060Z,8.27
2022-10-19T20:06:41.754Z,8.95
2022-10-19T20:09:13.646Z,13.25
2022-10-19T20:11:54.202Z,12.55
2022-10-19T20:14:24.820Z,14.85
2022-10-19T20:16:52.356Z,8.18
2022-10-19T20:19:22.805Z,14.35
2022-10-19T20:21:51.584Z,9.63
2022-10-19T20:24:20.052Z,11.75
2022-10-19T20:26:52.602Z,12.00
2022-10-19T20:29:22.309Z,11.18
2022-10-19T20:31:53.746Z,13.57
2022-10-19T20:34:23.155Z,10.80
2022-10-19T20:36:58.454Z,13.82
2022-10-19T20:39:30.007Z,13.02
2022-10-19T20:41:57.154Z,12.02
2022-10-19T20:44:24.539Z,13.70
2022-10-19T20:46:59.433Z,13.43
2022-10-19T20:49:28.492Z,8.68
2022-10-19T20:51:56.015Z,9.07
2022-10-19T20:54:23.243Z,13.30
2022-10-19T20:56:50.185Z,11.40
2022-10-19T20:59:19.342Z,13.38
2022-10-19T21:01:52.692Z,27.00
2022-10-19T21:04:26.438Z,38.25
2022-10-19T21:07:00.355Z,42.47
2022-10-19T21:09:27.423Z,34.40
2022-10-19T21:11:54.453Z,20.65
2022-10-19T21:14:28.334Z,12.55
2022-10-19T21:16:58.597Z,19.05
2022-10-19T21:19:31.347Z,13.90
2022-10-19T21:22:04.427Z,15.10
2022-10-19T21:24:35.606Z,9.38
2022-10-19T21:27:06.828Z,9.30
2022-10-19T21:29:37.414Z,10.30
2022-10-19T21:32:12.262Z,9.82
2022-10-19T21:34:39.286Z,12.10
2022-10-19T21:37:07.326Z,11.13
2022-10-19T21:39:34.474Z,9.73
2022-10-19T21:42:02.867Z,15.45
2022-10-19T21:44:30.809Z,16.50
2022-10-19T21:46:59.854Z,21.98
2022-10-19T21:49:34.869Z,18.17
2022-10-19T21:52:01.943Z,16.20
2022-10-19T21:54:29.926Z,15.65
2022-10-19T21:57:08.789Z,14.55
2022-10-19T21:59:35.855Z,19.67
2022-10-19T22:02:04.881Z,17.02
2022-10-19T22:04:32.823Z,20.20
2022-10-19T22:07:01.617Z,36.17
2022-10-19T22:09:31.667Z,43.78
2022-10-19T22:11:58.699Z,24.30
2022-10-19T22:14:25.727Z,17.23
2022-10-19T22:16:53.783Z,123.70
2022-10-19T22:19:23.946Z,134.32
2022-10-19T22:22:02.089Z,26.13
2022-10-19T22:24:29.080Z,13.15
2022-10-19T22:27:01.883Z,59.95
2022-10-19T22:29:28.905Z,25.88
2022-10-19T22:31:57.923Z,29.20
2022-10-19T22:34:29.096Z,22.30
2022-10-19T22:37:01.316Z,14.75
2022-10-19T22:39:30.279Z,14.68
2022-10-19T22:42:25.367Z,57.53
2022-10-19T22:44:52.386Z,13.48
2022-10-19T22:47:19.474Z,13.63
2022-10-19T22:49:54.582Z,29.33
2022-10-19T22:52:22.624Z,30.90
2022-10-19T22:54:51.433Z,17.67
2022-10-19T22:57:18.489Z,12.65
2022-10-19T22:59:51.347Z,13.93
2022-10-19T23:02:19.319Z,15.73
2022-10-19T23:04:46.427Z,13.05
2022-10-19T23:07:14.471Z,14.43
2022-10-19T23:09:45.473Z,14.70
2022-10-19T23:12:12.539Z,15.18
2022-10-19T23:14:40.519Z,14.63
2022-10-19T23:17:07.599Z,8.88
2022-10-19T23:19:36.696Z,13.77
2022-10-19T23:22:12.817Z,19.60
2022-10-19T23:24:45.012Z,17.58
2022-10-19T23:27:19.110Z,12.32
2022-10-19T23:29:47.238Z,16.70
2022-10-19T23:32:16.413Z,13.55
2022-10-19T23:34:47.484Z,9.73
2022-10-19T23:37:17.766Z,15.75
2022-10-19T23:39:44.800Z,61.45
2022-10-19T23:42:11.799Z,26.98
2022-10-19T23:44:39.792Z,15.90
2022-10-19T23:47:07.777Z,53.15
2022-10-19T23:49:34.806Z,42.72
2022-10-19T23:52:05.983Z,20.45
2022-10-19T23:54:39.149Z,13.73
2022-10-19T23:57:12.984Z,12.13
2022-10-19T23:59:41.064Z,15.02
